createdAt,value
2018-03-19T00:01:42.505Z,22.73
2018-03-19T00:04:08.523Z,22.72
2018-03-19T00:06:34.500Z,22.72
2018-03-19T00:09:00.537Z,22.71
2018-03-19T00:11:26.497Z,22.72
2018-03-19T00:13:52.514Z,22.70
2018-03-19T00:16:18.511Z,22.70
2018-03-19T00:18:44.512Z,22.70
2018-03-19T00:21:10.518Z,22.70
2018-03-19T00:23:36.499Z,22.69
2018-03-19T00:26:02.489Z,22.69
2018-03-19T00:28:28.487Z,22.68
2018-03-19T00:30:54.482Z,22.68
2018-03-19T00:33:20.498Z,22.68
2018-03-19T00:35:46.485Z,22.68
2018-03-19T00:38:12.488Z,22.67
2018-03-19T00:40:38.500Z,22.66
2018-03-19T00:43:04.526Z,22.66
2018-03-19T00:45:30.477Z,22.65
2018-03-19T00:47:56.501Z,22.65
2018-03-19T00:50:22.535Z,22.65
2018-03-19T00:52:48.525Z,22.65
2018-03-19T00:55:14.541Z,22.65
2018-03-19T00:57:40.570Z,22.64
2018-03-19T01:00:06.536Z,22.64
2018-03-19T01:02:32.551Z,22.63
2018-03-19T01:04:58.533Z,22.64
2018-03-19T01:07:24.540Z,22.63
2018-03-19T01:09:50.567Z,22.62
2018-03-19T01:12:16.568Z,22.62
2018-03-19T01:14:42.544Z,22.63
2018-03-19T01:17:08.522Z,22.62
2018-03-19T01:19:34.508Z,22.61
2018-03-19T01:22:00.498Z,22.61
2018-03-19T01:24:26.487Z,22.61
2018-03-19T01:26:52.509Z,22.61
2018-03-19T01:29:18.530Z,22.61
2018-03-19T01:31:44.505Z,22.60
2018-03-19T01:34:10.488Z,22.60
2018-03-19T01:36:36.473Z,22.60
2018-03-19T01:39:02.465Z,22.59
2018-03-19T01:41:28.446Z,22.59
2018-03-19T01:43:54.440Z,22.59
2018-03-19T01:46:20.468Z,22.58
2018-03-19T01:48:46.447Z,22.58
2018-03-19T01:51:12.441Z,22.58
2018-03-19T01:53:38.466Z,22.57
2018-03-19T01:56:04.436Z,22.57
2018-03-19T01:58:30.458Z,22.57
2018-03-19T02:00:56.459Z,22.57
2018-03-19T02:03:22.473Z,22.57
2018-03-19T02:05:48.441Z,22.57
2018-03-19T02:08:14.464Z,22.57
2018-03-19T02:10:40.456Z,22.57
2018-03-19T02:13:06.450Z,22.56
2018-03-19T02:15:32.446Z,22.56
2018-03-19T02:17:58.446Z,22.56
2018-03-19T02:20:24.428Z,22.56
2018-03-19T02:22:50.417Z,22.55
2018-03-19T02:25:16.422Z,22.55
2018-03-19T02:27:42.446Z,22.55
2018-03-19T02:30:08.399Z,22.55
2018-03-19T02:32:34.421Z,22.54
2018-03-19T02:35:00.389Z,22.55
2018-03-19T02:37:26.376Z,22.54
2018-03-19T02:39:52.377Z,22.54
2018-03-19T02:42:18.383Z,22.54
2018-03-19T02:44:44.414Z,22.54
2018-03-19T02:47:10.365Z,22.53
2018-03-19T02:49:36.401Z,22.54
2018-03-19T02:52:02.375Z,22.53
2018-03-19T02:54:28.377Z,22.53
2018-03-19T02:56:54.370Z,22.53
2018-03-19T02:59:20.409Z,22.53
2018-03-19T03:01:46.359Z,22.52
2018-03-19T03:04:12.358Z,22.52
2018-03-19T03:06:38.372Z,22.52
2018-03-19T03:09:04.399Z,22.52
2018-03-19T03:11:30.497Z,22.52
2018-03-19T03:13:56.455Z,22.51
2018-03-19T03:16:22.442Z,22.52
2018-03-19T03:18:48.430Z,22.51
2018-03-19T03:21:14.438Z,22.51
2018-03-19T03:23:40.429Z,22.51
2018-03-19T03:26:06.430Z,22.50
2018-03-19T03:28:32.409Z,22.51
2018-03-19T03:30:58.421Z,22.50
2018-03-19T03:33:24.450Z,22.50
2018-03-19T03:35:50.431Z,22.50
2018-03-19T03:38:16.433Z,22.50
2018-03-19T03:40:42.426Z,22.49
2018-03-19T03:43:08.431Z,22.50
2018-03-19T03:45:34.416Z,22.49
2018-03-19T03:48:00.415Z,22.50
2018-03-19T03:50:26.412Z,22.50
2018-03-19T03:52:52.447Z,22.49
2018-03-19T03:55:18.442Z,22.49
2018-03-19T03:57:44.413Z,22.48
2018-03-19T04:00:10.398Z,22.48
2018-03-19T04:02:36.406Z,22.48
2018-03-19T04:05:02.420Z,22.48
2018-03-19T04:07:28.387Z,22.48
2018-03-19T04:09:54.411Z,22.48
2018-03-19T04:12:20.373Z,22.47
2018-03-19T04:14:46.375Z,22.47
2018-03-19T04:17:12.362Z,22.47
2018-03-19T04:19:38.379Z,22.47
2018-03-19T04:22:04.374Z,22.46
2018-03-19T04:24:30.340Z,22.46
2018-03-19T04:26:56.317Z,22.46
2018-03-19T04:29:22.336Z,22.46
2018-03-19T04:31:48.347Z,22.46
2018-03-19T04:34:14.330Z,22.47
2018-03-19T04:36:40.322Z,22.46
2018-03-19T04:39:06.276Z,22.46
2018-03-19T04:41:32.273Z,22.46
2018-03-19T04:43:58.264Z,22.46
2018-03-19T04:46:24.287Z,22.44
2018-03-19T04:48:50.304Z,22.43
2018-03-19T04:51:16.267Z,22.43
2018-03-19T04:53:42.283Z,22.42
2018-03-19T04:56:08.282Z,22.42
2018-03-19T04:58:34.267Z,22.43
2018-03-19T05:01:00.289Z,22.43
2018-03-19T05:03:26.385Z,22.43
2018-03-19T05:05:52.334Z,22.44
2018-03-19T05:08:18.310Z,22.45
2018-03-19T05:10:44.298Z,22.47
2018-03-19T05:13:10.295Z,22.47
2018-03-19T05:15:36.305Z,22.47
2018-03-19T05:18:02.324Z,22.47
2018-03-19T05:20:28.298Z,22.48
2018-03-19T05:22:54.310Z,22.47
2018-03-19T05:25:20.290Z,22.48
2018-03-19T05:27:46.279Z,22.49
2018-03-19T05:30:12.316Z,22.48
2018-03-19T05:32:38.312Z,22.47
2018-03-19T05:35:04.277Z,22.47
2018-03-19T05:37:30.385Z,22.46
2018-03-19T05:39:56.370Z,22.47
2018-03-19T05:42:22.393Z,22.48
2018-03-19T05:44:48.369Z,22.48
2018-03-19T05:47:14.358Z,22.48
2018-03-19T05:49:40.394Z,22.48
2018-03-19T05:52:06.357Z,22.48
2018-03-19T05:54:32.362Z,22.48
2018-03-19T05:56:58.358Z,22.48
2018-03-19T05:59:24.361Z,22.49
2018-03-19T06:01:50.382Z,22.49
2018-03-19T06:04:16.400Z,22.49
2018-03-19T06:06:42.382Z,22.48
2018-03-19T06:09:08.382Z,22.48
2018-03-19T06:11:34.401Z,22.48
2018-03-19T06:14:00.450Z,22.49
2018-03-19T06:16:26.444Z,22.49
2018-03-19T06:18:52.445Z,22.48
2018-03-19T06:21:18.466Z,22.49
2018-03-19T06:23:44.554Z,22.49
2018-03-19T06:26:10.593Z,22.49
2018-03-19T06:28:36.618Z,22.49
2018-03-19T06:31:02.607Z,22.48
2018-03-19T06:33:28.603Z,22.48
2018-03-19T06:35:54.584Z,22.49
2018-03-19T06:38:20.612Z,22.48
2018-03-19T06:40:46.647Z,22.48
2018-03-19T06:43:12.645Z,22.48
2018-03-19T06:45:38.634Z,22.49
2018-03-19T06:48:04.616Z,22.49
2018-03-19T06:50:30.632Z,22.47
2018-03-19T06:52:56.650Z,22.48
2018-03-19T06:55:22.644Z,22.47
2018-03-19T06:57:48.704Z,22.47
2018-03-19T07:00:14.698Z,22.46
2018-03-19T07:02:40.826Z,22.45
2018-03-19T07:05:06.811Z,22.44
2018-03-19T07:07:32.802Z,22.43
2018-03-19T07:09:58.825Z,22.44
2018-03-19T07:12:24.852Z,22.43
2018-03-19T07:14:50.868Z,22.41
2018-03-19T07:17:16.887Z,22.43
2018-03-19T07:19:42.860Z,22.42
2018-03-19T07:22:08.858Z,22.42
2018-03-19T07:24:34.901Z,22.42
2018-03-19T07:27:00.928Z,22.42
2018-03-19T07:29:26.903Z,22.42
2018-03-19T07:31:52.919Z,22.43
2018-03-19T07:34:18.907Z,22.43
2018-03-19T07:36:44.969Z,22.42
2018-03-19T07:39:10.959Z,22.43
2018-03-19T07:41:37.006Z,22.43
2018-03-19T07:44:03.045Z,22.43
2018-03-19T07:46:29.014Z,22.42
2018-03-19T07:48:55.019Z,22.43
2018-03-19T07:51:21.061Z,22.42
2018-03-19T07:53:46.992Z,22.43
2018-03-19T07:56:12.998Z,22.42
2018-03-19T07:58:38.990Z,22.42
2018-03-19T08:01:04.985Z,22.41
2018-03-19T08:03:31.009Z,22.41
2018-03-19T08:05:57.000Z,22.40
2018-03-19T08:08:23.157Z,22.40
2018-03-19T08:10:49.164Z,22.39
2018-03-19T08:13:15.196Z,22.39
2018-03-19T08:15:41.167Z,22.39
2018-03-19T08:18:07.182Z,22.40
2018-03-19T08:20:33.220Z,22.40
2018-03-19T08:22:59.208Z,22.40
2018-03-19T08:25:25.214Z,22.41
2018-03-19T08:27:51.200Z,22.41
2018-03-19T08:30:17.190Z,22.41
2018-03-19T08:32:43.207Z,22.40
2018-03-19T08:35:09.218Z,22.40
2018-03-19T08:37:35.234Z,22.40
2018-03-19T08:40:01.215Z,22.40
2018-03-19T08:42:27.205Z,22.39
2018-03-19T08:44:53.189Z,22.39
2018-03-19T08:47:19.245Z,22.39
2018-03-19T08:49:45.223Z,22.39
2018-03-19T08:52:11.213Z,22.38
2018-03-19T08:54:37.231Z,22.39
2018-03-19T08:57:03.225Z,22.37
2018-03-19T08:59:29.218Z,22.38
2018-03-19T09:01:55.248Z,22.37
2018-03-19T09:04:21.289Z,22.38
2018-03-19T09:06:47.237Z,22.39
2018-03-19T09:09:13.265Z,22.38
2018-03-19T09:11:41.589Z,22.38
2018-03-19T09:14:07.564Z,22.38
2018-03-19T09:16:33.630Z,22.38
2018-03-19T09:18:59.570Z,22.37
2018-03-19T09:21:25.564Z,22.38
2018-03-19T09:23:51.638Z,22.38
2018-03-19T09:26:17.590Z,22.37
2018-03-19T09:28:43.592Z,22.37
2018-03-19T09:31:09.624Z,22.37
2018-03-19T09:33:35.636Z,22.37
2018-03-19T09:36:01.591Z,22.37
2018-03-19T09:38:27.609Z,22.37
2018-03-19T09:40:53.633Z,22.38
2018-03-19T09:43:19.656Z,22.37
2018-03-19T09:45:45.671Z,22.37
2018-03-19T09:48:11.678Z,22.37
2018-03-19T09:50:37.655Z,22.37
2018-03-19T09:53:03.672Z,22.37
2018-03-19T09:55:29.666Z,22.37
2018-03-19T09:57:55.659Z,22.37
2018-03-19T10:00:21.669Z,22.36
2018-03-19T10:02:47.723Z,22.36
2018-03-19T10:05:13.665Z,22.36
2018-03-19T10:07:39.680Z,22.36
2018-03-19T10:10:05.680Z,22.35
2018-03-19T10:12:31.712Z,22.36
2018-03-19T10:14:57.699Z,22.36
2018-03-19T10:17:23.692Z,22.36
2018-03-19T10:19:49.675Z,22.36
2018-03-19T10:22:15.694Z,22.37
2018-03-19T10:24:41.699Z,22.37
2018-03-19T10:27:07.677Z,22.36
2018-03-19T10:29:33.700Z,22.36
2018-03-19T10:31:59.688Z,22.37
2018-03-19T10:34:25.675Z,22.37
2018-03-19T10:36:51.697Z,22.37
2018-03-19T10:39:17.693Z,22.35
2018-03-19T10:41:43.684Z,22.37
2018-03-19T10:44:09.718Z,22.38
2018-03-19T10:46:35.743Z,22.39
2018-03-19T10:49:01.732Z,22.39
2018-03-19T10:51:28.932Z,22.39
2018-03-19T10:53:53.721Z,22.38
2018-03-19T10:56:19.708Z,22.38
2018-03-19T10:58:45.723Z,22.38
2018-03-19T11:01:11.779Z,22.37
2018-03-19T11:03:37.741Z,22.37
2018-03-19T11:06:03.737Z,22.37
2018-03-19T11:08:29.720Z,22.37
2018-03-19T11:10:55.717Z,22.38
2018-03-19T11:13:21.747Z,22.38
2018-03-19T11:15:47.763Z,22.38
2018-03-19T11:18:13.749Z,22.38
2018-03-19T11:20:39.741Z,22.38
2018-03-19T11:23:05.732Z,22.39
2018-03-19T11:25:31.721Z,22.40
2018-03-19T11:27:57.744Z,22.39
2018-03-19T11:30:23.733Z,22.39
2018-03-19T11:32:49.731Z,22.39
2018-03-19T11:35:15.765Z,22.39
2018-03-19T11:37:41.787Z,22.39
2018-03-19T11:40:07.736Z,22.40
2018-03-19T11:42:33.771Z,22.41
2018-03-19T11:44:59.762Z,22.40
2018-03-19T11:47:25.785Z,22.40
2018-03-19T11:49:51.790Z,22.39
2018-03-19T11:52:17.767Z,22.38
2018-03-19T11:54:43.763Z,22.37
2018-03-19T11:57:09.775Z,22.37
2018-03-19T11:59:35.767Z,22.36
2018-03-19T12:02:01.808Z,22.35
2018-03-19T12:04:27.878Z,22.34
2018-03-19T12:06:53.919Z,22.33
2018-03-19T12:09:19.911Z,22.33
2018-03-19T12:11:46.023Z,22.32
2018-03-19T12:14:12.060Z,22.31
2018-03-19T12:16:38.272Z,22.31
2018-03-19T12:19:04.330Z,22.31
2018-03-19T12:21:37.278Z,22.29
2018-03-19T12:24:03.318Z,22.29
2018-03-19T12:26:29.469Z,22.29
2018-03-19T12:28:55.489Z,22.28
2018-03-19T12:31:21.453Z,22.28
2018-03-19T12:33:47.470Z,22.27
2018-03-19T12:36:13.466Z,22.28
2018-03-19T12:38:39.452Z,22.27
2018-03-19T12:41:05.485Z,22.26
2018-03-19T12:43:31.471Z,22.27
2018-03-19T12:45:57.469Z,22.27
2018-03-19T12:48:23.504Z,22.27
2018-03-19T12:50:49.496Z,22.26
2018-03-19T12:53:15.512Z,22.27
2018-03-19T12:55:41.561Z,22.26
2018-03-19T12:58:07.584Z,22.26
2018-03-19T13:00:33.546Z,22.26
2018-03-19T13:02:59.572Z,22.25
2018-03-19T13:05:25.569Z,22.26
2018-03-19T13:07:51.584Z,22.25
2018-03-19T13:10:17.574Z,22.25
2018-03-19T13:12:43.561Z,22.24
2018-03-19T13:15:09.558Z,22.24
2018-03-19T13:17:35.574Z,22.24
2018-03-19T13:20:01.606Z,22.24
2018-03-19T13:22:27.588Z,22.24
2018-03-19T13:24:53.609Z,22.24
2018-03-19T13:27:19.591Z,22.26
2018-03-19T13:29:45.617Z,22.26
2018-03-19T13:32:11.600Z,22.27
2018-03-19T13:34:37.593Z,22.28
2018-03-19T13:37:03.573Z,22.28
2018-03-19T13:39:29.616Z,22.28
2018-03-19T13:41:55.600Z,22.28
2018-03-19T13:44:21.600Z,22.29
2018-03-19T13:46:47.640Z,22.28
2018-03-19T13:49:13.639Z,22.29
2018-03-19T13:51:39.777Z,22.30
2018-03-19T13:54:05.799Z,22.28
2018-03-19T13:56:31.784Z,22.27
2018-03-19T13:58:57.927Z,22.27
2018-03-19T14:01:23.943Z,22.26
2018-03-19T14:03:49.939Z,22.25
2018-03-19T14:06:15.919Z,22.25
2018-03-19T14:08:41.956Z,22.25
2018-03-19T14:11:08.021Z,22.25
2018-03-19T14:13:34.019Z,22.25
2018-03-19T14:16:00.099Z,22.24
2018-03-19T14:18:26.105Z,22.23
2018-03-19T14:20:52.139Z,22.23
2018-03-19T14:23:18.138Z,22.23
2018-03-19T14:25:44.164Z,22.23
2018-03-19T14:28:10.209Z,22.22
2018-03-19T14:30:36.131Z,22.22
2018-03-19T14:33:02.124Z,22.21
2018-03-19T14:35:28.141Z,22.21
2018-03-19T14:37:54.143Z,22.21
2018-03-19T14:40:20.167Z,22.21
2018-03-19T14:42:46.122Z,22.20
2018-03-19T14:45:12.142Z,22.19
2018-03-19T14:47:38.143Z,22.19
2018-03-19T14:50:04.132Z,22.20
2018-03-19T14:52:30.570Z,22.20
2018-03-19T14:54:56.555Z,22.21
2018-03-19T14:57:22.555Z,22.20
2018-03-19T14:59:48.625Z,22.19
2018-03-19T15:02:14.626Z,22.20
2018-03-19T15:04:40.644Z,22.20
2018-03-19T15:07:06.642Z,22.20
2018-03-19T15:09:32.627Z,22.20
2018-03-19T15:11:58.655Z,22.20
2018-03-19T15:14:24.642Z,22.20
2018-03-19T15:16:50.644Z,22.20
2018-03-19T15:19:16.633Z,22.18
2018-03-19T15:21:42.679Z,22.18
2018-03-19T15:24:08.647Z,22.19
2018-03-19T15:26:34.665Z,22.18
2018-03-19T15:29:00.667Z,22.18
2018-03-19T15:31:26.674Z,22.18
2018-03-19T15:33:52.694Z,22.19
2018-03-19T15:36:18.747Z,22.18
2018-03-19T15:38:44.729Z,22.18
2018-03-19T15:41:10.735Z,22.18
2018-03-19T15:43:36.805Z,22.18
2018-03-19T15:46:02.810Z,22.20
2018-03-19T15:48:28.797Z,22.21
2018-03-19T15:50:54.847Z,22.22
2018-03-19T15:53:20.864Z,22.22
2018-03-19T15:55:46.832Z,22.24
2018-03-19T15:58:12.893Z,22.24
2018-03-19T16:00:38.917Z,22.25
2018-03-19T16:03:04.942Z,22.27
2018-03-19T16:05:30.966Z,22.29
2018-03-19T16:07:56.956Z,22.30
2018-03-19T16:10:22.962Z,22.30
2018-03-19T16:12:49.012Z,22.30
2018-03-19T16:15:15.050Z,22.31
2018-03-19T16:17:41.044Z,22.30
2018-03-19T16:20:07.029Z,22.31
2018-03-19T16:22:33.057Z,22.31
2018-03-19T16:24:59.021Z,22.30
2018-03-19T16:27:25.049Z,22.31
2018-03-19T16:29:51.032Z,22.32
2018-03-19T16:32:17.107Z,22.32
2018-03-19T16:34:43.152Z,22.33
2018-03-19T16:37:09.163Z,22.33
2018-03-19T16:39:35.193Z,22.32
2018-03-19T16:42:01.180Z,22.31
2018-03-19T16:44:27.228Z,22.31
2018-03-19T16:46:53.247Z,22.31
2018-03-19T16:49:19.240Z,22.33
2018-03-19T16:51:45.219Z,22.35
2018-03-19T16:54:11.248Z,22.36
2018-03-19T16:56:37.705Z,22.37
2018-03-19T16:59:03.698Z,22.36
2018-03-19T17:01:29.851Z,22.34
2018-03-19T17:03:55.892Z,22.33
2018-03-19T17:06:21.944Z,22.33
2018-03-19T17:08:47.949Z,22.32
2018-03-19T17:11:14.069Z,22.32
2018-03-19T17:13:40.251Z,22.32
2018-03-19T17:16:06.233Z,22.31
2018-03-19T17:18:32.307Z,22.31
2018-03-19T17:20:58.287Z,22.31
2018-03-19T17:23:24.863Z,22.31
2018-03-19T17:25:51.831Z,22.31
2018-03-19T17:28:18.367Z,22.30
2018-03-19T17:30:45.025Z,22.30
2018-03-19T17:33:11.914Z,22.32
2018-03-19T17:35:40.398Z,22.32
2018-03-19T17:38:07.172Z,22.31
2018-03-19T17:40:34.192Z,22.31
2018-03-19T17:43:00.828Z,22.30
2018-03-19T17:45:27.606Z,22.31
2018-03-19T17:47:54.333Z,22.30
2018-03-19T17:50:21.056Z,22.29
2018-03-19T17:52:48.307Z,22.32
2018-03-19T17:55:14.332Z,22.33
2018-03-19T17:57:40.334Z,22.33
2018-03-19T18:00:06.322Z,22.32
2018-03-19T18:02:32.654Z,22.32
2018-03-19T18:04:58.620Z,22.33
2018-03-19T18:07:24.634Z,22.33
2018-03-19T18:09:50.649Z,22.34
2018-03-19T18:12:16.651Z,22.35
2018-03-19T18:14:42.641Z,22.35
2018-03-19T18:17:08.669Z,22.36
2018-03-19T18:19:34.687Z,22.37
2018-03-19T18:22:00.682Z,22.36
2018-03-19T18:24:26.666Z,22.38
2018-03-19T18:26:52.697Z,22.38
2018-03-19T18:29:18.649Z,22.36
2018-03-19T18:31:44.670Z,22.35
2018-03-19T18:34:10.706Z,22.37
2018-03-19T18:36:36.685Z,22.35
2018-03-19T18:39:02.730Z,22.35
2018-03-19T18:41:28.746Z,22.37
2018-03-19T18:43:54.759Z,22.38
2018-03-19T18:46:21.085Z,22.38
2018-03-19T18:48:47.081Z,22.39
2018-03-19T18:51:13.136Z,22.39
2018-03-19T18:53:39.165Z,22.37
2018-03-19T18:56:05.194Z,22.39
2018-03-19T18:58:31.157Z,22.38
2018-03-19T19:00:57.180Z,22.38
2018-03-19T19:03:23.179Z,22.37
2018-03-19T19:05:49.196Z,22.38
2018-03-19T19:08:15.225Z,22.38
2018-03-19T19:10:41.221Z,22.39
2018-03-19T19:13:07.220Z,22.39
2018-03-19T19:15:33.237Z,22.38
2018-03-19T19:17:59.239Z,22.39
2018-03-19T19:20:25.223Z,22.40
2018-03-19T19:22:51.255Z,22.40
2018-03-19T19:25:17.241Z,22.41
2018-03-19T19:27:43.310Z,22.39
2018-03-19T19:30:09.677Z,22.39
2018-03-19T19:32:36.183Z,22.38
2018-03-19T19:35:02.683Z,22.37
2018-03-19T19:37:29.255Z,22.37
2018-03-19T19:39:55.519Z,22.36
2018-03-19T19:42:22.322Z,22.35
2018-03-19T19:44:48.713Z,22.35
2018-03-19T19:47:14.717Z,22.35
2018-03-19T19:49:40.711Z,22.34
2018-03-19T19:52:06.745Z,22.34
2018-03-19T19:54:32.733Z,22.33
2018-03-19T19:56:58.768Z,22.33
2018-03-19T19:59:24.746Z,22.34
2018-03-19T20:01:50.784Z,22.35
2018-03-19T20:04:16.728Z,22.34
2018-03-19T20:06:42.730Z,22.34
2018-03-19T20:09:08.752Z,22.33
2018-03-19T20:11:34.725Z,22.33
2018-03-19T20:14:00.742Z,22.33
2018-03-19T20:16:26.736Z,22.33
2018-03-19T20:18:52.727Z,22.32
2018-03-19T20:21:18.732Z,22.32
2018-03-19T20:23:44.752Z,22.33
2018-03-19T20:26:10.722Z,22.32
2018-03-19T20:28:36.731Z,22.35
2018-03-19T20:31:02.728Z,22.35
2018-03-19T20:33:28.746Z,22.37
2018-03-19T20:35:54.744Z,22.37
2018-03-19T20:38:20.738Z,22.37
2018-03-19T20:40:46.796Z,22.36
2018-03-19T20:43:12.751Z,22.35
2018-03-19T20:45:38.763Z,22.35
2018-03-19T20:48:04.762Z,22.35
2018-03-19T20:50:30.913Z,22.35
2018-03-19T20:52:56.953Z,22.34
2018-03-19T20:55:22.970Z,22.34
2018-03-19T20:57:49.088Z,22.34
2018-03-19T21:00:15.316Z,22.35
2018-03-19T21:02:42.773Z,22.34
2018-03-19T21:05:08.782Z,22.33
2018-03-19T21:07:34.820Z,22.32
2018-03-19T21:10:00.858Z,22.32
2018-03-19T21:12:26.850Z,22.33
2018-03-19T21:14:52.879Z,22.33
2018-03-19T21:17:19.083Z,22.32
2018-03-19T21:19:45.176Z,22.33
2018-03-19T21:22:11.133Z,22.32
2018-03-19T21:24:37.162Z,22.32
2018-03-19T21:27:03.145Z,22.32
2018-03-19T21:29:29.177Z,22.32
2018-03-19T21:31:55.171Z,22.32
2018-03-19T21:34:21.132Z,22.32
2018-03-19T21:36:47.156Z,22.32
2018-03-19T21:39:13.150Z,22.31
2018-03-19T21:41:39.137Z,22.31
2018-03-19T21:44:05.138Z,22.32
2018-03-19T21:46:31.162Z,22.32
2018-03-19T21:48:57.155Z,22.33
2018-03-19T21:51:23.141Z,22.32
2018-03-19T21:53:49.271Z,22.32
2018-03-19T21:56:15.243Z,22.33
2018-03-19T21:58:41.238Z,22.31
2018-03-19T22:01:07.231Z,22.32
2018-03-19T22:03:33.260Z,22.32
2018-03-19T22:05:59.212Z,22.31
2018-03-19T22:08:25.245Z,22.30
2018-03-19T22:10:51.235Z,22.30
2018-03-19T22:13:17.231Z,22.29
2018-03-19T22:15:43.222Z,22.29
2018-03-19T22:18:09.215Z,22.29
2018-03-19T22:20:35.211Z,22.28
2018-03-19T22:23:01.209Z,22.28
2018-03-19T22:25:27.208Z,22.27
2018-03-19T22:27:53.205Z,22.26
2018-03-19T22:30:19.190Z,22.26
2018-03-19T22:32:45.222Z,22.25
2018-03-19T22:35:11.214Z,22.26
2018-03-19T22:37:37.234Z,22.25
2018-03-19T22:40:03.226Z,22.24
2018-03-19T22:42:29.227Z,22.23
2018-03-19T22:44:55.222Z,22.24
2018-03-19T22:47:21.254Z,22.23
2018-03-19T22:49:47.249Z,22.23
2018-03-19T22:52:13.252Z,22.22
2018-03-19T22:54:39.268Z,22.21
2018-03-19T22:57:05.244Z,22.20
2018-03-19T22:59:31.220Z,22.21
2018-03-19T23:01:57.223Z,22.21
2018-03-19T23:04:23.251Z,22.20
2018-03-19T23:06:49.231Z,22.20
2018-03-19T23:09:15.255Z,22.19
2018-03-19T23:11:41.253Z,22.19
2018-03-19T23:14:07.276Z,22.18
2018-03-19T23:16:33.239Z,22.18
2018-03-19T23:18:59.219Z,22.17
2018-03-19T23:21:25.223Z,22.17
2018-03-19T23:23:51.203Z,22.17
2018-03-19T23:26:17.208Z,22.16
2018-03-19T23:28:43.190Z,22.15
2018-03-19T23:31:09.186Z,22.15
2018-03-19T23:33:35.180Z,22.15
2018-03-19T23:36:01.186Z,22.15
2018-03-19T23:38:27.206Z,22.14
2018-03-19T23:40:53.228Z,22.14
2018-03-19T23:43:19.216Z,22.13
2018-03-19T23:45:45.182Z,22.14
2018-03-19T23:48:11.191Z,22.13
2018-03-19T23:50:37.194Z,22.13
2018-03-19T23:53:03.145Z,22.12
2018-03-19T23:55:29.147Z,22.12
2018-03-19T23:57:55.148Z,22.11
